Time;durP1;ratioP1;P1;durP2;ratioP2;P2;SDS_P1;SDS_P2;PMS_P1;PMS_P2;Temp;Humidity;BMP_temperature;BMP_pressure;BME280_temperature;BME280_humidity;BME280_pressure;Samples;Min_cycle;Max_cycle;Signal;HPM_P1;HPM_P2
2022/06/07 00:01:05;;;;;;;3.00;2.10;;;;;;;15.51;100.00;100875.47;5053884;28;20482;-77
2022/06/07 00:03:34;;;;;;;3.87;2.80;;;;;;;15.49;100.00;100869.53;5054140;28;20458;-77
2022/06/07 00:06:00;;;;;;;5.23;3.83;;;;;;;15.47;100.00;100866.31;5053929;28;20868;-76
2022/06/07 00:08:28;;;;;;;5.53;3.27;;;;;;;15.41;100.00;100856.72;5053667;28;20478;-77
2022/06/07 00:10:54;;;;;;;6.00;3.53;;;;;;;15.40;100.00;100858.63;5054129;28;20470;-77
2022/06/07 00:13:21;;;;;;;9.90;3.20;;;;;;;15.36;100.00;100863.13;5054063;28;20511;-77
2022/06/07 00:15:48;;;;;;;5.37;2.63;;;;;;;15.31;100.00;100863.31;5053811;28;20529;-77
2022/06/07 00:18:15;;;;;;;3.93;2.60;;;;;;;15.36;100.00;100860.41;5054299;28;20450;-76
2022/06/07 00:20:44;;;;;;;2.93;2.37;;;;;;;15.32;100.00;100857.56;5053791;28;20585;-77
2022/06/07 00:23:13;;;;;;;5.00;2.80;;;;;;;15.29;100.00;100860.91;5054051;28;20545;-76
2022/06/07 00:25:41;;;;;;;5.17;2.87;;;;;;;15.26;100.00;100858.84;5053646;28;20521;-76
2022/06/07 00:28:08;;;;;;;3.90;2.80;;;;;;;15.22;100.00;100855.16;5053152;28;20884;-76
2022/06/07 00:30:36;;;;;;;3.60;2.67;;;;;;;15.22;100.00;100854.34;5053323;28;20893;-76
2022/06/07 00:33:03;;;;;;;4.73;3.13;;;;;;;15.23;100.00;100856.78;5053262;28;20453;-76
2022/06/07 00:35:30;;;;;;;5.67;2.93;;;;;;;15.20;100.00;100851.16;5053621;28;20835;-76
2022/06/07 00:37:58;;;;;;;4.00;2.40;;;;;;;15.11;100.00;100845.72;5054004;28;20446;-77
2022/06/07 00:40:25;;;;;;;5.40;3.20;;;;;;;15.08;100.00;100844.44;5052839;28;20496;-76
2022/06/07 00:42:51;;;;;;;6.50;2.97;;;;;;;15.03;100.00;100847.34;5053094;28;20529;-76
2022/06/07 00:45:21;;;;;;;4.67;2.63;;;;;;;15.03;100.00;100835.63;5052950;28;21011;-76
2022/06/07 00:47:48;;;;;;;3.20;2.53;;;;;;;14.96;100.00;100841.56;5053143;28;20517;-76
2022/06/07 00:50:21;;;;;;;3.87;2.70;;;;;;;15.00;100.00;100839.81;5052854;28;20500;-76
2022/06/07 00:52:48;;;;;;;5.47;2.20;;;;;;;14.99;100.00;100851.03;5053158;28;20430;-76
2022/06/07 00:55:17;;;;;;;4.00;2.60;;;;;;;14.93;100.00;100844.16;5052774;28;20940;-76
2022/06/07 00:57:44;;;;;;;6.13;2.50;;;;;;;14.96;100.00;100841.56;5053398;28;20446;-76
2022/06/07 01:00:13;;;;;;;6.23;3.37;;;;;;;14.98;100.00;100844.00;5052898;28;20568;-75
2022/06/07 01:02:40;;;;;;;6.23;2.97;;;;;;;14.94;100.00;100846.56;5052553;28;20561;-74
2022/06/07 01:05:08;;;;;;;6.23;4.57;;;;;;;14.82;100.00;100851.88;5078234;22;20493;-68
2022/06/07 01:13:04;;;;;;;4.47;3.00;;;;;;;14.69;100.00;100831.84;5053062;28;20460;-65
2022/06/07 01:15:30;;;;;;;5.00;3.10;;;;;;;14.66;100.00;100829.78;5052815;28;21039;-65
2022/06/07 01:17:57;;;;;;;3.60;2.80;;;;;;;14.60;100.00;100836.50;5052717;28;21011;-65
2022/06/07 01:20:24;;;;;;;3.97;2.30;;;;;;;14.68;100.00;100834.88;5052822;28;20478;-65
2022/06/07 01:22:52;;;;;;;5.10;2.93;;;;;;;14.69;100.00;100829.09;5052985;28;20796;-65
2022/06/07 01:25:18;;;;;;;3.23;2.30;;;;;;;14.68;100.00;100822.06;5052675;28;20458;-65
2022/06/07 01:27:45;;;;;;;7.30;2.90;;;;;;;14.74;100.00;100828.13;5053226;28;20541;-65
2022/06/07 01:30:12;;;;;;;3.47;2.40;;;;;;;14.69;100.00;100823.66;5052640;28;20474;-64
2022/06/07 01:32:40;;;;;;;3.17;2.63;;;;;;;14.68;100.00;100821.25;5053187;28;20528;-64
2022/06/07 01:35:07;;;;;;;4.70;3.23;;;;;;;14.62;100.00;100812.44;5052813;28;20502;-65
2022/06/07 01:37:35;;;;;;;2.50;2.20;;;;;;;14.51;100.00;100819.34;5052646;28;20939;-64
2022/06/07 01:43:02;;;;;;;5.10;2.70;;;;;;;14.66;100.00;100820.78;4991233;28;20425;-64
2022/06/07 01:45:28;;;;;;;5.77;2.77;;;;;;;14.59;100.00;100813.88;4991381;28;20464;-66
2022/06/07 01:47:55;;;;;;;3.73;2.63;;;;;;;14.51;100.00;100814.69;5017782;28;20453;-65
2022/06/07 01:50:22;;;;;;;4.00;2.67;;;;;;;14.56;100.00;100813.72;5052769;28;20470;-64
2022/06/07 01:52:48;;;;;;;3.60;2.47;;;;;;;14.47;100.00;100808.25;5054697;28;20529;-64
2022/06/07 01:55:16;;;;;;;3.23;2.80;;;;;;;14.49;100.00;100813.41;5056079;28;20873;-64
2022/06/07 01:57:43;;;;;;;3.43;2.63;;;;;;;14.44;100.00;100817.09;5056089;28;20939;-65
2022/06/07 02:00:11;;;;;;;3.20;2.43;;;;;;;14.53;100.00;100820.63;5056166;28;20852;-64
2022/06/07 02:02:37;;;;;;;3.73;2.13;;;;;;;14.55;100.00;100826.56;5056361;28;20533;-66
2022/06/07 02:05:04;;;;;;;3.63;2.60;;;;;;;14.51;100.00;100819.34;5056065;28;20590;-64
2022/06/07 02:07:31;;;;;;;2.80;1.97;;;;;;;14.52;100.00;100816.31;5056379;28;20437;-66
2022/06/07 02:09:58;;;;;;;5.47;3.27;;;;;;;14.45;100.00;100815.16;5056092;28;20446;-65
2022/06/07 02:12:26;;;;;;;2.93;2.17;;;;;;;14.46;100.00;100803.13;5055953;28;20464;-65
2022/06/07 02:14:52;;;;;;;4.10;2.67;;;;;;;14.43;100.00;100820.91;5055782;28;20611;-65
2022/06/07 02:17:19;;;;;;;2.53;2.00;;;;;;;14.41;100.00;100819.63;5055763;28;20541;-66
2022/06/07 02:19:45;;;;;;;5.47;2.63;;;;;;;14.42;100.00;100819.31;5055747;28;20582;-65
2022/06/07 02:22:12;;;;;;;3.70;2.50;;;;;;;14.35;100.00;100819.81;5055776;28;20453;-65
2022/06/07 02:24:39;;;;;;;2.90;2.33;;;;;;;14.31;100.00;100818.84;5055365;28;20442;-65
2022/06/07 02:27:08;;;;;;;3.00;2.70;;;;;;;14.19;100.00;100818.66;5055701;28;20541;-65
2022/06/07 02:29:39;;;;;;;6.57;2.73;;;;;;;14.11;100.00;100812.09;5055440;28;20438;-65
2022/06/07 02:32:11;;;;;;;2.93;2.63;;;;;;;14.12;100.00;100812.88;5055662;28;20522;-65
2022/06/07 02:34:41;;;;;;;2.90;2.57;;;;;;;14.12;100.00;100808.25;5055850;28;20429;-67
2022/06/07 02:37:09;;;;;;;2.93;2.40;;;;;;;14.07;100.00;100813.84;5055270;28;20803;-65
2022/06/07 02:39:37;;;;;;;2.60;2.03;;;;;;;14.15;100.00;100814.97;5055345;28;20485;-65
2022/06/07 02:42:06;;;;;;;3.50;2.70;;;;;;;14.20;100.00;100809.38;5055083;28;20442;-65
2022/06/07 02:44:33;;;;;;;2.70;2.20;;;;;;;14.16;100.00;100813.03;5055625;28;20438;-64
2022/06/07 02:47:01;;;;;;;2.87;2.50;;;;;;;14.19;100.00;100817.88;5055249;28;20459;-64
2022/06/07 02:49:28;;;;;;;3.20;2.43;;;;;;;14.20;100.00;100814.00;5055293;28;20457;-64
2022/06/07 02:51:55;;;;;;;4.20;2.80;;;;;;;14.22;100.00;100817.25;5054944;28;20431;-65
2022/06/07 02:54:21;;;;;;;3.70;2.70;;;;;;;14.16;100.00;100819.28;5055191;28;20526;-65
2022/06/07 02:56:48;;;;;;;4.60;2.57;;;;;;;14.16;100.00;100821.22;5055084;28;20468;-65
2022/06/07 02:59:15;;;;;;;6.13;2.97;;;;;;;14.10;100.00;100813.22;5054988;28;20442;-65
2022/06/07 03:01:41;;;;;;;6.20;3.10;;;;;;;14.15;100.00;100817.69;5055086;28;20522;-69
2022/06/07 03:04:09;;;;;;;8.20;2.43;;;;;;;14.15;100.00;100820.44;5053993;28;20529;-65
2022/06/07 03:06:36;;;;;;;5.60;2.77;;;;;;;14.07;100.00;100815.75;5054544;28;20480;-64
2022/06/07 03:09:03;;;;;;;3.60;2.87;;;;;;;14.05;100.00;100813.38;5055067;28;20537;-64
2022/06/07 03:11:30;;;;;;;2.30;2.10;;;;;;;14.03;100.00;100807.44;5054690;28;20944;-64
2022/06/07 03:13:57;;;;;;;6.00;3.23;;;;;;;14.06;100.00;100819.63;5055349;28;20438;-66
2022/06/07 03:16:23;;;;;;;8.63;4.10;;;;;;;14.07;100.00;100811.13;5055079;28;20909;-65
2022/06/07 03:18:50;;;;;;;4.23;2.90;;;;;;;14.11;100.00;100805.84;5054854;28;20533;-64
2022/06/07 03:21:18;;;;;;;3.97;2.67;;;;;;;14.05;100.00;100815.28;5054410;28;20486;-64
2022/06/07 03:23:45;;;;;;;4.00;2.37;;;;;;;14.03;100.00;100812.91;5054574;28;20446;-64
2022/06/07 03:26:14;;;;;;;5.20;2.60;;;;;;;14.10;100.00;100809.69;5054509;28;20469;-64
2022/06/07 03:28:41;;;;;;;12.40;3.83;;;;;;;14.12;100.00;100807.44;5054528;28;20521;-63
2022/06/07 03:31:12;;;;;;;5.10;2.80;;;;;;;14.02;100.00;100819.44;5054183;28;20521;-64
2022/06/07 03:33:38;;;;;;;20.33;3.30;;;;;;;14.04;100.00;100819.16;5054466;28;20430;-64
2022/06/07 03:36:10;;;;;;;13.67;3.27;;;;;;;14.02;100.00;100824.09;5053933;28;20549;-64
2022/06/07 03:38:38;;;;;;;4.70;2.87;;;;;;;14.07;100.00;100819.28;5054544;28;20449;-64
2022/06/07 03:41:05;;;;;;;3.27;2.60;;;;;;;14.06;100.00;100828.59;5053867;28;21082;-64
2022/06/07 03:43:32;;;;;;;7.83;3.20;;;;;;;14.07;100.00;100821.22;5054066;28;20529;-65
2022/06/07 03:46:07;;;;;;;4.40;2.80;;;;;;;14.02;100.00;100824.88;5054196;28;20552;-64
2022/06/07 03:48:34;;;;;;;5.30;2.30;;;;;;;14.00;100.00;100826.34;5053840;28;20525;-64
2022/06/07 03:51:00;;;;;;;4.70;2.97;;;;;;;13.93;100.00;100826.00;5054098;28;20525;-64
2022/06/07 03:53:27;;;;;;;9.43;3.20;;;;;;;13.85;100.00;100833.03;5054040;28;20456;-64
2022/06/07 03:55:55;;;;;;;6.30;3.17;;;;;;;13.81;100.00;100826.59;5053963;28;20469;-64
2022/06/07 03:58:22;;;;;;;4.87;2.80;;;;;;;13.89;100.00;100821.19;5053881;28;21026;-64
2022/06/07 04:00:49;;;;;;;3.50;2.60;;;;;;;14.03;100.00;100828.41;5053776;28;20482;-65
2022/06/07 04:03:15;;;;;;;5.90;2.43;;;;;;;14.11;100.00;100824.91;5053560;28;20543;-64
2022/06/07 04:05:43;;;;;;;3.53;2.57;;;;;;;14.12;100.00;100823.78;5053392;28;20572;-63
2022/06/07 04:08:12;;;;;;;3.37;2.90;;;;;;;14.19;100.00;100824.13;5053722;28;20828;-64
2022/06/07 04:10:45;;;;;;;3.80;2.53;;;;;;;14.20;100.00;100833.09;5053769;28;20446;-64
2022/06/07 04:13:13;;;;;;;2.90;2.40;;;;;;;14.19;100.00;100828.75;5053704;28;20506;-63
2022/06/07 04:15:40;;;;;;;5.57;3.23;;;;;;;14.23;100.00;100827.81;5053381;28;20462;-64
2022/06/07 04:18:07;;;;;;;3.83;2.60;;;;;;;14.29;100.00;100826.53;5053495;28;20817;-64
2022/06/07 04:20:34;;;;;;;4.63;3.30;;;;;;;14.36;100.00;100829.56;5053476;28;20487;-63
2022/06/07 04:23:01;;;;;;;3.90;2.70;;;;;;;14.49;100.00;100827.84;5053556;28;20442;-64
2022/06/07 04:25:29;;;;;;;2.77;2.47;;;;;;;14.57;100.00;100828.97;5053496;28;20465;-64
2022/06/07 04:27:55;;;;;;;3.57;2.93;;;;;;;14.63;100.00;100833.94;5053184;28;20944;-64
2022/06/07 04:30:23;;;;;;;7.00;3.50;;;;;;;14.72;100.00;100838.56;5053480;28;20884;-63
2022/06/07 04:32:50;;;;;;;3.53;2.67;;;;;;;14.77;100.00;100828.28;5053314;28;20532;-64
2022/06/07 04:35:18;;;;;;;2.93;1.90;;;;;;;14.85;100.00;100830.22;5052954;28;21066;-64
2022/06/07 04:37:46;;;;;;;2.67;2.07;;;;;;;14.98;100.00;100830.34;5053006;28;20489;-64
2022/06/07 04:40:13;;;;;;;3.60;2.40;;;;;;;15.02;100.00;100828.59;5053198;28;20500;-65
2022/06/07 04:42:41;;;;;;;2.70;2.03;;;;;;;15.10;100.00;100830.50;5052912;28;20442;-65
2022/06/07 04:45:12;;;;;;;3.63;2.50;;;;;;;15.17;100.00;100830.78;5053205;28;20462;-65
2022/06/07 04:47:40;;;;;;;8.50;3.00;;;;;;;15.23;100.00;100834.94;5053317;28;20430;-65
2022/06/07 04:50:09;;;;;;;5.90;2.80;;;;;;;15.30;100.00;100831.69;5053194;28;20537;-64
2022/06/07 04:52:36;;;;;;;2.93;2.40;;;;;;;15.38;100.00;100828.94;5053557;28;20445;-65
2022/06/07 04:55:03;;;;;;;2.40;2.13;;;;;;;15.47;100.00;100828.09;5052844;28;20462;-64
2022/06/07 04:57:30;;;;;;;4.60;2.70;;;;;;;15.54;100.00;100823.75;5053341;28;20533;-65
2022/06/07 04:59:57;;;;;;;3.23;2.80;;;;;;;15.62;100.00;100822.88;5053090;28;20486;-65
2022/06/07 05:02:24;;;;;;;4.17;2.70;;;;;;;15.70;100.00;100820.47;5052982;28;20474;-65
2022/06/07 05:04:52;;;;;;;3.70;2.37;;;;;;;15.76;99.29;100821.88;5052546;28;20448;-66
2022/06/07 05:07:18;;;;;;;2.57;1.87;;;;;;;15.83;99.53;100831.16;5053124;28;20522;-65
2022/06/07 05:09:45;;;;;;;5.97;2.70;;;;;;;15.89;98.67;100835.31;5053156;28;20517;-65
2022/06/07 05:12:11;;;;;;;7.10;1.90;;;;;;;15.89;98.28;100835.31;5053099;28;20443;-65
2022/06/07 05:14:38;;;;;;;3.83;2.50;;;;;;;15.96;97.23;100831.25;5053004;28;20468;-65
2022/06/07 05:17:05;;;;;;;2.80;1.80;;;;;;;16.03;96.42;100834.28;5052975;28;20450;-65
2022/06/07 05:19:33;;;;;;;3.27;2.00;;;;;;;16.11;96.16;100845.16;5052862;28;20442;-65
2022/06/07 05:22:01;;;;;;;4.30;1.83;;;;;;;16.21;96.75;100838.47;5052625;28;20513;-66
2022/06/07 05:24:28;;;;;;;2.50;2.17;;;;;;;16.25;96.03;100839.41;5052926;28;20466;-65
2022/06/07 05:26:58;;;;;;;2.60;1.83;;;;;;;16.31;96.39;100842.75;5053368;28;20462;-65
2022/06/07 05:29:28;;;;;;;2.43;1.80;;;;;;;16.35;97.04;100835.47;5057074;28;20516;-64
2022/06/07 05:31:55;;;;;;;2.50;1.37;;;;;;;16.43;96.76;100840.09;5056683;28;20525;-65
2022/06/07 05:34:22;;;;;;;4.10;2.40;;;;;;;16.44;97.66;100844.41;5056776;28;20540;-65
2022/06/07 05:36:48;;;;;;;3.20;2.03;;;;;;;16.42;92.47;100848.59;5056365;28;21005;-63
2022/06/07 05:39:21;;;;;;;2.90;2.20;;;;;;;16.47;91.98;100848.41;5056828;28;20521;-65
2022/06/07 05:41:47;;;;;;;3.07;1.93;;;;;;;16.60;92.55;100850.88;5056800;28;20469;-64
2022/06/07 05:44:14;;;;;;;2.70;1.67;;;;;;;16.65;91.74;100856.13;5056534;28;20468;-65
2022/06/07 05:46:41;;;;;;;1.90;1.40;;;;;;;16.79;91.62;100864.09;5056408;28;20454;-65
2022/06/07 05:49:09;;;;;;;2.90;2.00;;;;;;;16.88;90.31;100862.06;5056425;28;20434;-65
2022/06/07 05:51:36;;;;;;;1.53;1.13;;;;;;;16.96;91.26;100862.34;5056407;28;20533;-64
2022/06/07 05:54:02;;;;;;;2.77;1.77;;;;;;;17.03;90.45;100865.31;5056316;28;20444;-64
2022/06/07 05:56:30;;;;;;;2.80;2.10;;;;;;;17.17;90.08;100870.47;5056210;28;20462;-65
2022/06/07 05:58:58;;;;;;;2.50;1.93;;;;;;;17.19;84.47;100862.75;5056239;28;20515;-65
2022/06/07 06:01:26;;;;;;;1.97;1.33;;;;;;;17.27;85.05;100867.31;5056131;28;20487;-65
2022/06/07 06:03:53;;;;;;;1.50;1.03;;;;;;;17.32;83.81;100858.88;5056187;28;20437;-67
2022/06/07 06:06:19;;;;;;;1.70;1.33;;;;;;;17.49;83.49;100860.63;5056026;28;20503;-63
2022/06/07 06:11:33;;;;;;;2.43;1.53;;;;;;;17.65;79.25;100867.00;5055918;28;20406;-66
2022/06/07 06:14:00;;;;;;;2.13;1.27;;;;;;;17.79;79.13;100872.19;5055910;28;20525;-66
2022/06/07 06:16:26;;;;;;;2.67;1.80;;;;;;;17.94;77.89;100865.22;5055768;28;20549;-66
2022/06/07 06:18:55;;;;;;;1.80;1.27;;;;;;;18.02;78.92;100867.06;5055785;28;20481;-66
2022/06/07 06:21:24;;;;;;;2.00;1.47;;;;;;;18.12;78.59;100872.06;5055956;28;20573;-66
2022/06/07 06:23:51;;;;;;;2.00;1.17;;;;;;;18.24;76.42;100868.47;5055840;28;20450;-65
2022/06/07 06:26:20;;;;;;;2.23;1.20;;;;;;;18.32;76.39;100873.81;5055688;28;20557;-67
2022/06/07 06:28:49;;;;;;;2.47;1.30;;;;;;;18.38;75.58;100874.41;5055794;28;20489;-66
2022/06/07 06:31:16;;;;;;;1.20;0.87;;;;;;;18.38;73.93;100880.69;5055669;28;20813;-65
2022/06/07 06:33:45;;;;;;;1.60;0.97;;;;;;;18.43;73.14;100876.91;5055625;28;20449;-67
2022/06/07 06:36:14;;;;;;;1.70;1.27;;;;;;;18.48;73.13;100878.59;5055412;28;20462;-65
2022/06/07 06:38:43;;;;;;;1.83;1.20;;;;;;;18.52;74.11;100879.50;5055571;28;20442;-66
2022/06/07 06:41:10;;;;;;;1.53;1.10;;;;;;;18.61;73.34;100885.66;5055373;28;20488;-66
2022/06/07 06:43:37;;;;;;;1.53;1.00;;;;;;;18.69;73.16;100873.78;5055498;28;20442;-65
2022/06/07 06:46:06;;;;;;;3.00;1.40;;;;;;;18.83;74.34;100876.13;5054910;28;20473;-65
2022/06/07 06:48:33;;;;;;;1.23;0.80;;;;;;;18.96;74.17;100879.59;5055740;28;20522;-66
2022/06/07 06:51:01;;;;;;;1.20;0.80;;;;;;;19.14;76.49;100883.63;5055274;28;20869;-66
2022/06/07 06:53:28;;;;;;;1.50;1.10;;;;;;;19.29;77.39;100884.78;5055292;28;20442;-65
2022/06/07 06:55:56;;;;;;;1.37;1.17;;;;;;;19.46;77.27;100881.72;5055104;28;20615;-66
2022/06/07 06:58:24;;;;;;;1.73;1.27;;;;;;;19.53;74.23;100886.59;5055120;28;20434;-65
2022/06/07 07:01:00;;;;;;;1.53;1.20;;;;;;;19.59;73.68;100885.16;5054827;28;20995;-66
2022/06/07 07:03:28;;;;;;;1.80;1.03;;;;;;;19.60;72.41;100881.25;5055079;28;20426;-65
2022/06/07 07:05:56;;;;;;;2.53;1.47;;;;;;;19.62;73.36;100887.25;5054691;28;20470;-66
2022/06/07 07:08:23;;;;;;;1.37;0.97;;;;;;;19.59;74.51;100877.72;5054778;28;20442;-66
2022/06/07 07:10:50;;;;;;;1.50;1.20;;;;;;;19.55;75.21;100873.28;5055017;28;20442;-66
2022/06/07 07:13:18;;;;;;;1.60;1.10;;;;;;;19.56;75.68;100872.94;5055008;28;20443;-65
2022/06/07 07:15:47;;;;;;;1.73;1.20;;;;;;;19.61;75.29;100875.47;5054825;28;20886;-65
2022/06/07 07:18:14;;;;;;;2.37;1.37;;;;;;;19.70;72.13;100871.72;5054754;28;20450;-65
2022/06/07 07:20:42;;;;;;;0.87;0.63;;;;;;;19.75;72.98;100869.50;5054437;28;21034;-65
2022/06/07 07:23:09;;;;;;;1.83;1.60;;;;;;;19.78;73.49;100873.47;5054690;28;20446;-65
2022/06/07 07:25:36;;;;;;;1.30;1.10;;;;;;;19.85;72.31;100873.66;5054524;28;21054;-65
2022/06/07 07:28:03;;;;;;;7.60;0.90;;;;;;;19.93;72.42;100872.69;5054546;28;20468;-65
2022/06/07 07:30:30;;;;;;;2.97;1.30;;;;;;;20.03;71.40;100868.56;5054292;28;20829;-65
2022/06/07 07:32:57;;;;;;;2.00;1.43;;;;;;;20.00;68.51;100874.78;5054245;28;20999;-65
2022/06/07 07:35:24;;;;;;;1.70;1.00;;;;;;;19.99;70.04;100868.50;5054460;28;20553;-65
2022/06/07 07:37:53;;;;;;;1.30;1.10;;;;;;;20.09;69.41;100867.13;5054500;28;20450;-64
2022/06/07 07:40:19;;;;;;;2.50;1.10;;;;;;;20.15;65.74;100871.22;5054360;28;20438;-64
2022/06/07 07:42:46;;;;;;;1.53;1.10;;;;;;;20.24;61.25;100868.28;5054198;28;20513;-64
2022/06/07 07:45:13;;;;;;;1.73;1.00;;;;;;;20.33;61.75;100866.09;5053837;28;20490;-65
2022/06/07 07:47:40;;;;;;;1.03;0.70;;;;;;;20.44;62.02;100882.84;5054021;28;20940;-65
2022/06/07 07:50:08;;;;;;;0.80;0.60;;;;;;;20.52;60.71;100870.84;5053671;28;20541;-65
2022/06/07 07:52:35;;;;;;;1.50;0.90;;;;;;;20.68;61.75;100877.09;5079496;22;20505;-76
2022/06/07 07:55:04;;;;;;;1.63;1.03;;;;;;;20.72;60.14;100872.47;5053630;28;20860;-76
2022/06/07 07:57:31;;;;;;;1.20;1.03;;;;;;;20.74;60.60;100863.81;5054006;28;20445;-76
2022/06/07 07:59:58;;;;;;;1.77;0.93;;;;;;;20.68;58.76;100870.78;5053646;28;20873;-77
2022/06/07 08:02:25;;;;;;;0.90;0.70;;;;;;;20.65;58.62;100864.03;5053746;28;20486;-77
2022/06/07 08:04:52;;;;;;;0.90;0.70;;;;;;;20.62;61.60;100865.56;5054592;28;20438;-77
2022/06/07 08:07:18;;;;;;;2.90;1.30;;;;;;;20.60;57.75;100859.63;5053767;28;21020;-77
2022/06/07 08:09:45;;;;;;;0.80;0.80;;;;;;;20.63;57.74;100864.41;5053858;28;20552;-77
2022/06/07 08:12:13;;;;;;;2.90;0.90;;;;;;;20.66;56.76;100857.38;5053961;28;20450;-74
2022/06/07 08:14:41;;;;;;;1.23;0.87;;;;;;;20.70;53.69;100873.97;5054005;28;20805;-78
2022/06/07 08:17:08;;;;;;;1.00;0.70;;;;;;;20.66;55.69;100855.41;5054321;28;20533;-75
2022/06/07 08:19:34;;;;;;;1.13;0.80;;;;;;;20.68;54.49;100863.31;5053684;28;20445;-76
2022/06/07 08:22:01;;;;;;;4.17;1.10;;;;;;;20.71;55.70;100859.81;5053100;28;20573;-76
2022/06/07 08:24:28;;;;;;;1.33;0.83;;;;;;;20.72;56.02;100866.13;5053780;28;20454;-76
2022/06/07 08:26:54;;;;;;;1.00;0.67;;;;;;;20.72;55.10;100860.63;5053507;28;20478;-76
2022/06/07 08:29:22;;;;;;;1.57;0.90;;;;;;;20.74;56.35;100863.81;5053369;28;20461;-76
2022/06/07 08:31:49;;;;;;;1.87;1.00;;;;;;;20.77;56.22;100861.16;5053294;28;20473;-76
2022/06/07 08:39:44;;;;;;;1.50;1.10;;;;;;;21.01;58.70;100848.22;5053395;28;20401;-77
2022/06/07 08:42:19;;;;;;;1.10;1.00;;;;;;;21.15;57.76;100845.72;5053060;28;20490;-76
2022/06/07 08:44:51;;;;;;;1.17;0.90;;;;;;;21.35;56.64;100843.72;5053260;28;20432;-76
2022/06/07 08:47:24;;;;;;;4.03;0.97;;;;;;;21.46;57.11;100847.44;5053206;28;20983;-76
2022/06/07 08:49:52;;;;;;;1.80;1.03;;;;;;;21.48;56.40;100836.88;5053170;28;20426;-76
2022/06/07 08:52:23;;;;;;;1.20;0.90;;;;;;;21.50;55.73;100833.72;5052920;28;20478;-76
2022/06/07 08:54:50;;;;;;;1.50;1.20;;;;;;;21.44;56.52;100840.72;5052787;28;20435;-76
2022/06/07 08:57:21;;;;;;;1.50;1.00;;;;;;;21.39;56.58;100837.13;5052743;28;20452;-76
2022/06/07 08:59:53;;;;;;;1.70;1.27;;;;;;;21.49;55.92;100824.66;5053071;28;20450;-76
2022/06/07 09:02:49;;;;;;;1.30;0.80;;;;;;;21.58;53.67;100822.44;5054532;28;20840;-76
2022/06/07 09:05:17;;;;;;;0.93;0.67;;;;;;;21.78;56.26;100825.91;5057250;28;20509;-76
2022/06/07 09:07:44;;;;;;;2.47;1.07;;;;;;;21.97;55.75;100807.66;5057405;28;20438;-76
2022/06/07 09:12:59;;;;;;;3.57;0.97;;;;;;;22.09;53.90;100815.69;5057323;28;20440;-75
2022/06/07 09:15:30;;;;;;;1.27;0.90;;;;;;;22.13;53.86;100805.53;5057329;28;20426;-76
2022/06/07 09:17:58;;;;;;;1.20;0.83;;;;;;;22.17;51.65;100807.16;5056773;28;20430;-76
2022/06/07 09:20:29;;;;;;;1.17;0.90;;;;;;;22.28;51.38;100801.00;5057028;28;20442;-75
2022/06/07 09:22:58;;;;;;;2.33;0.90;;;;;;;22.25;50.74;100805.28;5056746;28;20564;-75
2022/06/07 09:25:29;;;;;;;2.13;0.80;;;;;;;22.29;53.80;100800.63;5056827;28;20525;-76
2022/06/07 09:27:58;;;;;;;1.40;0.93;;;;;;;22.47;51.46;100803.59;5056833;28;20462;-76
2022/06/07 09:30:29;;;;;;;1.60;1.20;;;;;;;22.58;51.86;100804.53;5056710;28;20442;-76
2022/06/07 09:32:56;;;;;;;0.90;0.73;;;;;;;22.68;49.56;100800.28;5056378;28;20547;-77
2022/06/07 09:35:25;;;;;;;2.73;1.00;;;;;;;22.67;51.29;100795.94;5056320;28;20957;-77
2022/06/07 09:37:56;;;;;;;0.97;0.77;;;;;;;22.64;50.41;100793.94;5056565;28;20473;-76
2022/06/07 09:40:28;;;;;;;1.13;0.83;;;;;;;22.58;50.23;100787.16;5056517;28;20454;-76
2022/06/07 09:43:01;;;;;;;0.90;0.70;;;;;;;22.58;50.16;100784.41;5056379;28;20486;-76
2022/06/07 09:45:35;;;;;;;4.40;0.90;;;;;;;22.65;52.94;100770.66;5056455;28;20521;-76
2022/06/07 09:48:28;;;;;;;1.73;1.10;;;;;;;22.77;54.80;100758.56;5055874;28;20441;-76
2022/06/07 09:50:58;;;;;;;1.40;1.10;;;;;;;22.76;54.90;100770.78;5056409;28;20430;-76
2022/06/07 09:53:26;;;;;;;0.83;0.60;;;;;;;22.89;50.47;100770.16;5056314;28;20541;-77
2022/06/07 09:55:59;;;;;;;3.03;0.90;;;;;;;22.93;52.00;100759.09;5055906;28;20528;-75
2022/06/07 09:58:43;;;;;;;1.67;0.90;;;;;;;23.04;51.09;100753.69;5056295;28;20438;-77
2022/06/07 10:01:19;;;;;;;1.30;0.80;;;;;;;23.23;50.12;100758.97;5056300;28;20436;-71
2022/06/07 10:03:52;;;;;;;6.20;1.00;;;;;;;23.49;48.91;100740.59;5056224;28;20458;-73
2022/06/07 10:06:27;;;;;;;1.00;0.70;;;;;;;23.75;49.83;100750.66;5056789;28;20431;-77
2022/06/07 10:09:07;;;;;;;1.27;0.87;;;;;;;23.79;45.40;100751.47;5059072;28;20438;-79
2022/06/07 10:11:40;;;;;;;1.27;0.87;;;;;;;23.68;47.51;100748.63;5058486;28;20464;-78
2022/06/07 10:14:20;;;;;;;1.10;0.70;;;;;;;23.85;47.60;100734.09;5058304;28;20426;-78
2022/06/07 10:16:59;;;;;;;1.23;0.73;;;;;;;24.04;45.07;100735.81;5057480;28;20444;-77
2022/06/07 10:19:35;;;;;;;3.10;0.80;;;;;;;24.11;48.55;100735.03;5056449;28;20526;-77
2022/06/07 10:22:12;;;;;;;1.20;0.80;;;;;;;24.15;47.39;100727.53;5055642;28;20492;-80
2022/06/07 10:24:48;;;;;;;1.90;1.00;;;;;;;24.04;45.30;100737.75;5056567;28;20582;-76
2022/06/07 10:27:20;;;;;;;1.00;0.77;;;;;;;23.75;44.75;100734.06;5055668;28;20428;-77
2022/06/07 10:30:12;;;;;;;1.30;0.90;;;;;;;23.66;46.39;100734.41;5055759;28;20439;-77
2022/06/07 10:32:51;;;;;;;1.50;1.00;;;;;;;23.67;46.10;100724.94;5044426;28;20473;-77
2022/06/07 10:35:24;;;;;;;1.50;0.60;;;;;;;23.63;46.17;100729.63;5055600;28;20432;-77
2022/06/07 10:38:06;;;;;;;0.70;0.50;;;;;;;23.42;43.24;100724.78;5055225;28;20820;-76
2022/06/07 10:40:38;;;;;;;0.90;0.60;;;;;;;23.25;44.01;100725.44;5055508;28;20423;-76
2022/06/07 10:43:14;;;;;;;1.13;0.90;;;;;;;23.31;45.46;100723.91;5055280;28;20577;-77
2022/06/07 10:45:41;;;;;;;1.33;0.60;;;;;;;23.55;46.15;100722.47;5055370;28;20418;-76
2022/06/07 10:48:14;;;;;;;0.83;0.60;;;;;;;24.04;45.68;100721.97;5055007;28;20956;-77
2022/06/07 10:50:49;;;;;;;1.30;1.00;;;;;;;24.59;46.20;100707.09;5055495;28;20426;-77
2022/06/07 10:53:21;;;;;;;0.90;0.70;;;;;;;24.89;41.88;100710.28;5054768;28;20470;-77
2022/06/07 10:55:53;;;;;;;2.03;0.77;;;;;;;25.07;41.37;100717.81;5055339;28;20432;-76
2022/06/07 10:58:30;;;;;;;0.97;0.70;;;;;;;25.03;39.34;100722.56;5055169;28;20995;-76
2022/06/07 11:01:03;;;;;;;0.70;0.40;;;;;;;25.06;38.90;100716.22;5055160;28;20500;-77
2022/06/07 11:03:42;;;;;;;0.70;0.43;;;;;;;25.21;38.78;100714.25;5055828;28;20470;-78
2022/06/07 11:09:20;;;;;;;0.70;0.50;;;;;;;25.35;38.19;100719.78;4976297;28;20438;-78
2022/06/07 11:11:49;;;;;;;0.80;0.60;;;;;;;25.27;38.25;100712.66;5041409;28;20476;-80
2022/06/07 11:14:39;;;;;;;0.90;0.60;;;;;;;25.12;39.08;100706.34;5057371;28;20525;-79
2022/06/07 11:17:27;;;;;;;0.80;0.53;;;;;;;25.21;39.20;100692.88;5057314;28;20521;-79
2022/06/07 11:19:59;;;;;;;0.67;0.40;;;;;;;25.16;38.64;100709.91;5053906;28;20484;-78
2022/06/07 11:22:34;;;;;;;1.10;0.50;;;;;;;24.82;37.98;100726.91;5057675;28;20581;-79
2022/06/07 11:25:03;;;;;;;1.00;0.60;;;;;;;24.57;39.17;100715.00;5057346;28;20434;-78
2022/06/07 11:27:31;;;;;;;0.70;0.50;;;;;;;24.49;40.44;100708.66;5057292;28;20446;-77
2022/06/07 11:30:25;;;;;;;1.13;0.70;;;;;;;24.44;40.58;100722.09;5055668;28;20442;-79
2022/06/07 11:32:55;;;;;;;0.93;0.83;;;;;;;24.50;39.58;100712.22;5054824;28;20494;-78
2022/06/07 11:35:47;;;;;;;1.57;0.73;;;;;;;24.54;39.00;100715.78;5054626;28;20457;-77
2022/06/07 11:38:22;;;;;;;0.87;0.60;;;;;;;24.71;40.28;100719.78;5054673;28;20419;-76
2022/06/07 11:40:51;;;;;;;1.30;0.67;;;;;;;24.61;40.28;100721.31;5034494;28;20486;-76
2022/06/07 11:43:56;;;;;;;0.90;0.50;;;;;;;24.53;40.69;100726.09;5036126;28;20519;-79
2022/06/07 11:46:26;;;;;;;1.00;0.60;;;;;;;24.56;40.14;100713.41;5015455;28;20448;-74
2022/06/07 11:48:54;;;;;;;1.30;1.00;;;;;;;24.58;39.04;100720.16;5016626;28;20519;-77
2022/06/07 11:51:23;;;;;;;1.00;0.47;;;;;;;24.56;39.60;100713.41;5033965;28;20482;-74
2022/06/07 11:53:54;;;;;;;3.80;0.67;;;;;;;24.54;37.60;100704.72;5033787;28;20427;-74